sensor_id;sensor_type;location;lat;lon;timestamp;temperature;humidity
16863;DHT22;52193;48.216;-1.698;2023-04-25T00:00:29;14.00;93.50
16863;DHT22;52193;48.216;-1.698;2023-04-25T00:02:56;14.00;93.50
16863;DHT22;52193;48.216;-1.698;2023-04-25T00:05:25;13.90;93.50
16863;DHT22;52193;48.216;-1.698;2023-04-25T00:07:53;13.90;93.50
16863;DHT22;52193;48.216;-1.698;2023-04-25T00:10:20;13.90;93.50
16863;DHT22;52193;48.216;-1.698;2023-04-25T00:12:47;13.90;93.50
16863;DHT22;52193;48.216;-1.698;2023-04-25T00:15:14;13.90;93.50
16863;DHT22;52193;48.216;-1.698;2023-04-25T00:17:41;13.80;93.50
16863;DHT22;52193;48.216;-1.698;2023-04-25T00:20:09;13.80;93.50
16863;DHT22;52193;48.216;-1.698;2023-04-25T00:22:36;13.70;93.50
16863;DHT22;52193;48.216;-1.698;2023-04-25T00:25:06;13.70;93.50
16863;DHT22;52193;48.216;-1.698;2023-04-25T00:27:33;13.70;93.50
16863;DHT22;52193;48.216;-1.698;2023-04-25T00:30:00;13.80;93.60
16863;DHT22;52193;48.216;-1.698;2023-04-25T00:32:27;13.80;93.50
16863;DHT22;52193;48.216;-1.698;2023-04-25T00:34:54;13.80;93.60
16863;DHT22;52193;48.216;-1.698;2023-04-25T00:37:23;13.80;93.60
16863;DHT22;52193;48.216;-1.698;2023-04-25T00:39:50;13.80;93.50
16863;DHT22;52193;48.216;-1.698;2023-04-25T00:42:20;13.70;93.50
16863;DHT22;52193;48.216;-1.698;2023-04-25T00:44:48;13.70;93.50
16863;DHT22;52193;48.216;-1.698;2023-04-25T00:47:15;13.70;93.60
16863;DHT22;52193;48.216;-1.698;2023-04-25T00:49:42;13.70;93.60
16863;DHT22;52193;48.216;-1.698;2023-04-25T00:52:10;13.70;93.60
16863;DHT22;52193;48.216;-1.698;2023-04-25T00:54:37;13.70;93.60
16863;DHT22;52193;48.216;-1.698;2023-04-25T00:57:04;13.70;93.60
16863;DHT22;52193;48.216;-1.698;2023-04-25T00:59:33;13.60;93.60
16863;DHT22;52193;48.216;-1.698;2023-04-25T01:02:00;13.60;93.60
16863;DHT22;52193;48.216;-1.698;2023-04-25T01:04:28;13.60;93.70
16863;DHT22;52193;48.216;-1.698;2023-04-25T01:06:55;13.60;93.60
16863;DHT22;52193;48.216;-1.698;2023-04-25T01:09:22;13.60;93.60
16863;DHT22;52193;48.216;-1.698;2023-04-25T01:11:50;13.60;93.80
16863;DHT22;52193;48.216;-1.698;2023-04-25T01:14:17;13.50;93.60
16863;DHT22;52193;48.216;-1.698;2023-04-25T01:16:45;13.50;93.70
16863;DHT22;52193;48.216;-1.698;2023-04-25T01:19:16;13.40;93.70
16863;DHT22;52193;48.216;-1.698;2023-04-25T01:21:45;13.40;93.70
16863;DHT22;52193;48.216;-1.698;2023-04-25T01:24:13;13.30;93.70
16863;DHT22;52193;48.216;-1.698;2023-04-25T01:26:40;13.30;93.70
16863;DHT22;52193;48.216;-1.698;2023-04-25T01:29:10;13.20;93.70
16863;DHT22;52193;48.216;-1.698;2023-04-25T01:31:37;13.30;93.70
16863;DHT22;52193;48.216;-1.698;2023-04-25T01:34:04;13.30;93.70
16863;DHT22;52193;48.216;-1.698;2023-04-25T01:36:31;13.20;93.70
16863;DHT22;52193;48.216;-1.698;2023-04-25T01:39:00;13.20;93.70
16863;DHT22;52193;48.216;-1.698;2023-04-25T01:41:27;13.20;93.70
16863;DHT22;52193;48.216;-1.698;2023-04-25T01:43:55;13.20;93.70
16863;DHT22;52193;48.216;-1.698;2023-04-25T01:46:22;13.20;93.70
16863;DHT22;52193;48.216;-1.698;2023-04-25T01:48:49;13.20;93.70
16863;DHT22;52193;48.216;-1.698;2023-04-25T01:51:16;13.20;93.70
16863;DHT22;52193;48.216;-1.698;2023-04-25T01:53:43;13.20;93.80
16863;DHT22;52193;48.216;-1.698;2023-04-25T01:56:12;13.20;93.70
16863;DHT22;52193;48.216;-1.698;2023-04-25T01:58:38;13.10;93.70
16863;DHT22;52193;48.216;-1.698;2023-04-25T02:01:05;13.10;94.00
16863;DHT22;52193;48.216;-1.698;2023-04-25T02:03:32;13.10;93.80
16863;DHT22;52193;48.216;-1.698;2023-04-25T02:05:59;13.10;93.70
16863;DHT22;52193;48.216;-1.698;2023-04-25T02:08:26;13.10;93.80
16863;DHT22;52193;48.216;-1.698;2023-04-25T02:10:53;13.00;93.80
16863;DHT22;52193;48.216;-1.698;2023-04-25T02:13:21;13.00;93.70
16863;DHT22;52193;48.216;-1.698;2023-04-25T02:15:48;13.00;93.80
16863;DHT22;52193;48.216;-1.698;2023-04-25T02:18:16;13.00;93.80
16863;DHT22;52193;48.216;-1.698;2023-04-25T02:20:43;13.00;93.80
16863;DHT22;52193;48.216;-1.698;2023-04-25T02:23:10;13.00;93.80
16863;DHT22;52193;48.216;-1.698;2023-04-25T02:25:37;12.90;93.70
16863;DHT22;52193;48.216;-1.698;2023-04-25T02:28:04;12.90;94.10
16863;DHT22;52193;48.216;-1.698;2023-04-25T02:30:32;12.90;93.80
16863;DHT22;52193;48.216;-1.698;2023-04-25T02:32:59;12.90;93.80
16863;DHT22;52193;48.216;-1.698;2023-04-25T02:35:26;12.80;93.70
16863;DHT22;52193;48.216;-1.698;2023-04-25T02:37:53;12.80;93.80
16863;DHT22;52193;48.216;-1.698;2023-04-25T02:40:20;12.80;93.80
16863;DHT22;52193;48.216;-1.698;2023-04-25T02:42:47;12.70;93.80
16863;DHT22;52193;48.216;-1.698;2023-04-25T02:45:14;12.70;93.80
16863;DHT22;52193;48.216;-1.698;2023-04-25T02:47:42;12.70;93.80
16863;DHT22;52193;48.216;-1.698;2023-04-25T02:50:09;12.70;93.70
16863;DHT22;52193;48.216;-1.698;2023-04-25T02:52:36;12.70;93.80
16863;DHT22;52193;48.216;-1.698;2023-04-25T02:55:04;12.70;93.80
16863;DHT22;52193;48.216;-1.698;2023-04-25T02:57:31;12.70;93.80
16863;DHT22;52193;48.216;-1.698;2023-04-25T02:59:57;12.70;93.80
16863;DHT22;52193;48.216;-1.698;2023-04-25T03:02:24;12.60;93.80
16863;DHT22;52193;48.216;-1.698;2023-04-25T03:04:53;12.70;93.90
16863;DHT22;52193;48.216;-1.698;2023-04-25T03:07:19;12.60;93.80
16863;DHT22;52193;48.216;-1.698;2023-04-25T03:09:46;12.60;93.90
16863;DHT22;52193;48.216;-1.698;2023-04-25T03:12:13;12.70;93.90
16863;DHT22;52193;48.216;-1.698;2023-04-25T03:14:40;12.70;93.90
16863;DHT22;52193;48.216;-1.698;2023-04-25T03:17:07;12.60;93.90
16863;DHT22;52193;48.216;-1.698;2023-04-25T03:19:34;12.60;93.90
16863;DHT22;52193;48.216;-1.698;2023-04-25T03:22:02;12.70;93.90
16863;DHT22;52193;48.216;-1.698;2023-04-25T03:24:29;12.60;93.90
16863;DHT22;52193;48.216;-1.698;2023-04-25T03:26:56;12.60;93.90
16863;DHT22;52193;48.216;-1.698;2023-04-25T03:29:23;12.50;93.90
16863;DHT22;52193;48.216;-1.698;2023-04-25T03:31:52;12.50;93.90
16863;DHT22;52193;48.216;-1.698;2023-04-25T03:34:18;12.50;93.90
16863;DHT22;52193;48.216;-1.698;2023-04-25T03:36:47;12.50;94.00
16863;DHT22;52193;48.216;-1.698;2023-04-25T03:39:15;12.50;94.00
16863;DHT22;52193;48.216;-1.698;2023-04-25T03:41:42;12.50;94.10
16863;DHT22;52193;48.216;-1.698;2023-04-25T03:44:09;12.50;94.10
16863;DHT22;52193;48.216;-1.698;2023-04-25T03:46:36;12.50;94.10
16863;DHT22;52193;48.216;-1.698;2023-04-25T03:49:03;12.50;94.10
16863;DHT22;52193;48.216;-1.698;2023-04-25T03:51:30;12.50;94.00
16863;DHT22;52193;48.216;-1.698;2023-04-25T03:53:57;12.50;94.10
16863;DHT22;52193;48.216;-1.698;2023-04-25T03:56:25;12.40;94.00
16863;DHT22;52193;48.216;-1.698;2023-04-25T03:58:52;12.40;94.00
16863;DHT22;52193;48.216;-1.698;2023-04-25T04:01:19;12.30;93.90
16863;DHT22;52193;48.216;-1.698;2023-04-25T04:03:46;12.30;94.10
16863;DHT22;52193;48.216;-1.698;2023-04-25T04:06:12;12.30;94.00
16863;DHT22;52193;48.216;-1.698;2023-04-25T04:08:40;12.20;94.00
16863;DHT22;52193;48.216;-1.698;2023-04-25T04:11:07;12.30;94.10
16863;DHT22;52193;48.216;-1.698;2023-04-25T04:13:35;12.30;94.10
16863;DHT22;52193;48.216;-1.698;2023-04-25T04:16:02;12.20;94.20
16863;DHT22;52193;48.216;-1.698;2023-04-25T04:18:29;12.20;94.20
16863;DHT22;52193;48.216;-1.698;2023-04-25T04:20:56;12.30;94.20
16863;DHT22;52193;48.216;-1.698;2023-04-25T04:23:23;12.40;94.30
16863;DHT22;52193;48.216;-1.698;2023-04-25T04:25:52;12.50;94.30
16863;DHT22;52193;48.216;-1.698;2023-04-25T04:28:19;12.40;94.20
16863;DHT22;52193;48.216;-1.698;2023-04-25T04:30:48;12.40;94.30
16863;DHT22;52193;48.216;-1.698;2023-04-25T04:33:16;12.40;94.30
16863;DHT22;52193;48.216;-1.698;2023-04-25T04:35:44;12.40;94.40
16863;DHT22;52193;48.216;-1.698;2023-04-25T04:38:12;12.40;94.40
16863;DHT22;52193;48.216;-1.698;2023-04-25T04:40:40;12.30;94.40
16863;DHT22;52193;48.216;-1.698;2023-04-25T04:43:08;12.40;94.50
16863;DHT22;52193;48.216;-1.698;2023-04-25T04:45:36;12.30;94.50
16863;DHT22;52193;48.216;-1.698;2023-04-25T04:48:05;12.30;94.60
16863;DHT22;52193;48.216;-1.698;2023-04-25T04:50:32;12.30;94.50
16863;DHT22;52193;48.216;-1.698;2023-04-25T04:52:59;12.40;94.70
16863;DHT22;52193;48.216;-1.698;2023-04-25T04:55:26;12.40;94.70
16863;DHT22;52193;48.216;-1.698;2023-04-25T04:57:53;12.40;94.70
16863;DHT22;52193;48.216;-1.698;2023-04-25T05:00:20;12.40;94.70
16863;DHT22;52193;48.216;-1.698;2023-04-25T05:02:47;12.50;94.80
16863;DHT22;52193;48.216;-1.698;2023-04-25T05:05:15;12.50;94.70
16863;DHT22;52193;48.216;-1.698;2023-04-25T05:07:42;12.50;94.70
16863;DHT22;52193;48.216;-1.698;2023-04-25T05:10:10;12.50;94.80
16863;DHT22;52193;48.216;-1.698;2023-04-25T05:12:37;12.60;94.70
16863;DHT22;52193;48.216;-1.698;2023-04-25T05:15:04;12.60;95.00
16863;DHT22;52193;48.216;-1.698;2023-04-25T05:17:31;12.70;94.70
16863;DHT22;52193;48.216;-1.698;2023-04-25T05:19:59;12.70;94.70
16863;DHT22;52193;48.216;-1.698;2023-04-25T05:22:27;12.70;94.70
16863;DHT22;52193;48.216;-1.698;2023-04-25T05:24:54;12.70;94.80
16863;DHT22;52193;48.216;-1.698;2023-04-25T05:27:21;12.70;94.80
16863;DHT22;52193;48.216;-1.698;2023-04-25T05:29:48;12.70;94.80
16863;DHT22;52193;48.216;-1.698;2023-04-25T05:32:15;12.80;94.90
16863;DHT22;52193;48.216;-1.698;2023-04-25T05:34:42;12.80;94.90
16863;DHT22;52193;48.216;-1.698;2023-04-25T05:37:09;12.80;94.90
16863;DHT22;52193;48.216;-1.698;2023-04-25T05:39:37;12.80;95.00
16863;DHT22;52193;48.216;-1.698;2023-04-25T05:42:04;12.80;95.00
16863;DHT22;52193;48.216;-1.698;2023-04-25T05:44:31;12.90;95.10
16863;DHT22;52193;48.216;-1.698;2023-04-25T05:46:57;12.90;95.10
16863;DHT22;52193;48.216;-1.698;2023-04-25T05:49:24;12.90;95.10
16863;DHT22;52193;48.216;-1.698;2023-04-25T05:51:51;12.80;95.10
16863;DHT22;52193;48.216;-1.698;2023-04-25T05:54:18;12.90;95.20
16863;DHT22;52193;48.216;-1.698;2023-04-25T05:56:46;12.90;95.20
16863;DHT22;52193;48.216;-1.698;2023-04-25T05:59:13;12.90;95.20
16863;DHT22;52193;48.216;-1.698;2023-04-25T06:01:41;12.90;95.30
16863;DHT22;52193;48.216;-1.698;2023-04-25T06:04:08;12.90;95.30
16863;DHT22;52193;48.216;-1.698;2023-04-25T06:06:35;13.00;95.40
16863;DHT22;52193;48.216;-1.698;2023-04-25T06:09:02;13.00;95.30
16863;DHT22;52193;48.216;-1.698;2023-04-25T06:11:29;13.10;95.30
16863;DHT22;52193;48.216;-1.698;2023-04-25T06:13:57;13.10;95.40
16863;DHT22;52193;48.216;-1.698;2023-04-25T06:16:24;13.10;95.40
16863;DHT22;52193;48.216;-1.698;2023-04-25T06:18:51;13.10;95.50
16863;DHT22;52193;48.216;-1.698;2023-04-25T06:21:18;13.10;95.50
16863;DHT22;52193;48.216;-1.698;2023-04-25T06:23:45;13.20;95.50
16863;DHT22;52193;48.216;-1.698;2023-04-25T06:26:12;13.20;95.50
16863;DHT22;52193;48.216;-1.698;2023-04-25T06:28:39;13.20;95.50
16863;DHT22;52193;48.216;-1.698;2023-04-25T06:31:07;13.20;95.70
16863;DHT22;52193;48.216;-1.698;2023-04-25T06:33:34;13.20;95.60
16863;DHT22;52193;48.216;-1.698;2023-04-25T06:36:01;13.20;95.70
16863;DHT22;52193;48.216;-1.698;2023-04-25T06:38:28;13.20;95.70
16863;DHT22;52193;48.216;-1.698;2023-04-25T06:40:56;13.30;95.70
16863;DHT22;52193;48.216;-1.698;2023-04-25T06:43:23;13.30;95.70
16863;DHT22;52193;48.216;-1.698;2023-04-25T06:45:50;13.30;95.70
16863;DHT22;52193;48.216;-1.698;2023-04-25T06:48:18;13.40;95.70
16863;DHT22;52193;48.216;-1.698;2023-04-25T06:50:45;13.40;95.70
16863;DHT22;52193;48.216;-1.698;2023-04-25T06:53:12;13.50;95.80
16863;DHT22;52193;48.216;-1.698;2023-04-25T06:55:39;13.60;95.80
16863;DHT22;52193;48.216;-1.698;2023-04-25T06:58:06;13.50;95.70
16863;DHT22;52193;48.216;-1.698;2023-04-25T07:00:33;13.60;95.90
16863;DHT22;52193;48.216;-1.698;2023-04-25T07:03:00;13.70;95.80
16863;DHT22;52193;48.216;-1.698;2023-04-25T07:05:29;13.70;95.80
16863;DHT22;52193;48.216;-1.698;2023-04-25T07:07:55;13.70;95.90
16863;DHT22;52193;48.216;-1.698;2023-04-25T07:10:23;13.80;95.90
16863;DHT22;52193;48.216;-1.698;2023-04-25T07:12:50;13.80;95.90
16863;DHT22;52193;48.216;-1.698;2023-04-25T07:15:17;13.90;96.00
16863;DHT22;52193;48.216;-1.698;2023-04-25T07:17:44;13.90;96.00
16863;DHT22;52193;48.216;-1.698;2023-04-25T07:20:11;14.00;96.00
16863;DHT22;52193;48.216;-1.698;2023-04-25T07:22:40;14.00;95.90
16863;DHT22;52193;48.216;-1.698;2023-04-25T07:25:07;14.10;96.00
16863;DHT22;52193;48.216;-1.698;2023-04-25T07:27:34;14.20;96.00
16863;DHT22;52193;48.216;-1.698;2023-04-25T07:30:02;14.30;96.00
16863;DHT22;52193;48.216;-1.698;2023-04-25T07:32:29;14.40;95.90
16863;DHT22;52193;48.216;-1.698;2023-04-25T07:34:56;14.40;95.80
16863;DHT22;52193;48.216;-1.698;2023-04-25T07:37:23;14.50;95.90
16863;DHT22;52193;48.216;-1.698;2023-04-25T07:39:51;14.60;95.80
16863;DHT22;52193;48.216;-1.698;2023-04-25T07:42:18;14.70;95.90
16863;DHT22;52193;48.216;-1.698;2023-04-25T07:44:46;14.70;95.80
16863;DHT22;52193;48.216;-1.698;2023-04-25T07:49:48;14.90;95.80
16863;DHT22;52193;48.216;-1.698;2023-04-25T07:52:15;15.00;95.90
16863;DHT22;52193;48.216;-1.698;2023-04-25T07:54:42;15.10;95.90
16863;DHT22;52193;48.216;-1.698;2023-04-25T07:57:11;15.20;95.80
16863;DHT22;52193;48.216;-1.698;2023-04-25T07:59:39;15.20;95.70
16863;DHT22;52193;48.216;-1.698;2023-04-25T08:02:06;15.30;95.70
16863;DHT22;52193;48.216;-1.698;2023-04-25T08:04:33;15.40;95.60
16863;DHT22;52193;48.216;-1.698;2023-04-25T08:07:00;15.60;95.70
16863;DHT22;52193;48.216;-1.698;2023-04-25T08:09:27;15.60;95.50
16863;DHT22;52193;48.216;-1.698;2023-04-25T08:11:54;15.70;95.50
16863;DHT22;52193;48.216;-1.698;2023-04-25T08:14:23;15.70;95.40
16863;DHT22;52193;48.216;-1.698;2023-04-25T08:16:50;15.80;95.30
16863;DHT22;52193;48.216;-1.698;2023-04-25T08:19:16;15.80;95.20
16863;DHT22;52193;48.216;-1.698;2023-04-25T08:21:43;15.80;95.20
16863;DHT22;52193;48.216;-1.698;2023-04-25T08:24:10;15.90;95.20
16863;DHT22;52193;48.216;-1.698;2023-04-25T08:26:37;15.90;95.10
16863;DHT22;52193;48.216;-1.698;2023-04-25T08:29:05;16.00;95.00
16863;DHT22;52193;48.216;-1.698;2023-04-25T08:31:33;16.10;94.90
16863;DHT22;52193;48.216;-1.698;2023-04-25T08:34:00;16.10;94.80
16863;DHT22;52193;48.216;-1.698;2023-04-25T08:36:27;16.20;94.80
16863;DHT22;52193;48.216;-1.698;2023-04-25T08:38:54;16.30;94.70
16863;DHT22;52193;48.216;-1.698;2023-04-25T08:41:21;16.40;94.60
16863;DHT22;52193;48.216;-1.698;2023-04-25T08:43:49;16.50;94.60
16863;DHT22;52193;48.216;-1.698;2023-04-25T08:46:18;16.50;94.40
16863;DHT22;52193;48.216;-1.698;2023-04-25T08:48:47;16.50;94.30
16863;DHT22;52193;48.216;-1.698;2023-04-25T08:51:20;16.60;94.20
16863;DHT22;52193;48.216;-1.698;2023-04-25T08:53:49;16.70;94.20
16863;DHT22;52193;48.216;-1.698;2023-04-25T08:56:17;16.70;94.00
16863;DHT22;52193;48.216;-1.698;2023-04-25T08:58:47;16.80;94.00
16863;DHT22;52193;48.216;-1.698;2023-04-25T09:01:14;16.90;93.90
16863;DHT22;52193;48.216;-1.698;2023-04-25T09:03:42;17.00;93.90
16863;DHT22;52193;48.216;-1.698;2023-04-25T09:06:12;17.00;93.80
16863;DHT22;52193;48.216;-1.698;2023-04-25T09:08:39;17.00;93.80
16863;DHT22;52193;48.216;-1.698;2023-04-25T09:11:06;17.00;93.70
16863;DHT22;52193;48.216;-1.698;2023-04-25T09:13:33;17.10;93.70
16863;DHT22;52193;48.216;-1.698;2023-04-25T09:16:00;17.10;93.60
16863;DHT22;52193;48.216;-1.698;2023-04-25T09:18:29;17.20;93.60
16863;DHT22;52193;48.216;-1.698;2023-04-25T09:20:58;17.20;93.50
16863;DHT22;52193;48.216;-1.698;2023-04-25T09:23:39;17.20;93.30
16863;DHT22;52193;48.216;-1.698;2023-04-25T09:26:07;17.40;93.30
16863;DHT22;52193;48.216;-1.698;2023-04-25T09:28:35;17.40;93.20
16863;DHT22;52193;48.216;-1.698;2023-04-25T09:31:03;17.50;93.10
16863;DHT22;52193;48.216;-1.698;2023-04-25T09:33:31;17.50;93.00
16863;DHT22;52193;48.216;-1.698;2023-04-25T09:36:03;17.50;93.00
16863;DHT22;52193;48.216;-1.698;2023-04-25T09:38:32;17.50;92.80
16863;DHT22;52193;48.216;-1.698;2023-04-25T09:40:59;17.60;92.70
16863;DHT22;52193;48.216;-1.698;2023-04-25T09:43:27;17.70;92.60
16863;DHT22;52193;48.216;-1.698;2023-04-25T09:45:55;17.70;92.40
16863;DHT22;52193;48.216;-1.698;2023-04-25T09:48:26;17.70;92.30
16863;DHT22;52193;48.216;-1.698;2023-04-25T09:51:06;17.70;92.10
16863;DHT22;52193;48.216;-1.698;2023-04-25T09:53:36;17.80;92.00
16863;DHT22;52193;48.216;-1.698;2023-04-25T09:56:04;17.80;91.80
16863;DHT22;52193;48.216;-1.698;2023-04-25T09:58:32;17.90;91.70
16863;DHT22;52193;48.216;-1.698;2023-04-25T10:01:01;18.00;91.60
16863;DHT22;52193;48.216;-1.698;2023-04-25T10:03:30;18.10;91.60
16863;DHT22;52193;48.216;-1.698;2023-04-25T10:05:59;18.20;91.40
16863;DHT22;52193;48.216;-1.698;2023-04-25T10:08:30;18.20;91.10
16863;DHT22;52193;48.216;-1.698;2023-04-25T10:11:01;18.20;90.90
16863;DHT22;52193;48.216;-1.698;2023-04-25T10:13:30;18.20;90.90
16863;DHT22;52193;48.216;-1.698;2023-04-25T10:15:58;18.20;90.80
16863;DHT22;52193;48.216;-1.698;2023-04-25T10:18:26;18.30;90.70
16863;DHT22;52193;48.216;-1.698;2023-04-25T10:20:55;18.40;90.60
16863;DHT22;52193;48.216;-1.698;2023-04-25T10:23:23;18.50;90.60
16863;DHT22;52193;48.216;-1.698;2023-04-25T10:25:51;18.60;90.50
16863;DHT22;52193;48.216;-1.698;2023-04-25T10:28:20;18.60;90.40
16863;DHT22;52193;48.216;-1.698;2023-04-25T10:31:00;18.60;90.30
16863;DHT22;52193;48.216;-1.698;2023-04-25T10:33:35;18.60;90.20
16863;DHT22;52193;48.216;-1.698;2023-04-25T10:36:12;18.50;90.40
16863;DHT22;52193;48.216;-1.698;2023-04-25T10:38:40;18.70;90.00
16863;DHT22;52193;48.216;-1.698;2023-04-25T10:41:09;18.70;89.50
16863;DHT22;52193;48.216;-1.698;2023-04-25T10:43:39;18.80;89.40
16863;DHT22;52193;48.216;-1.698;2023-04-25T10:46:17;18.90;89.00
16863;DHT22;52193;48.216;-1.698;2023-04-25T10:48:46;19.00;89.10
16863;DHT22;52193;48.216;-1.698;2023-04-25T10:51:17;19.10;89.10
16863;DHT22;52193;48.216;-1.698;2023-04-25T10:53:45;19.30;88.80
16863;DHT22;52193;48.216;-1.698;2023-04-25T10:56:17;19.30;88.50
16863;DHT22;52193;48.216;-1.698;2023-04-25T10:58:46;19.30;88.30
16863;DHT22;52193;48.216;-1.698;2023-04-25T11:01:13;19.30;88.20
16863;DHT22;52193;48.216;-1.698;2023-04-25T11:03:41;19.40;87.90
16863;DHT22;52193;48.216;-1.698;2023-04-25T11:06:18;19.50;88.40
16863;DHT22;52193;48.216;-1.698;2023-04-25T11:08:48;19.60;87.30
16863;DHT22;52193;48.216;-1.698;2023-04-25T11:11:17;19.70;86.60
16863;DHT22;52193;48.216;-1.698;2023-04-25T11:13:47;19.90;86.50
16863;DHT22;52193;48.216;-1.698;2023-04-25T11:16:15;20.10;86.30
16863;DHT22;52193;48.216;-1.698;2023-04-25T11:18:42;20.40;86.20
16863;DHT22;52193;48.216;-1.698;2023-04-25T11:21:09;20.40;85.50
16863;DHT22;52193;48.216;-1.698;2023-04-25T11:23:36;20.40;85.10
16863;DHT22;52193;48.216;-1.698;2023-04-25T11:26:03;20.50;84.80
16863;DHT22;52193;48.216;-1.698;2023-04-25T11:28:33;20.60;84.50
16863;DHT22;52193;48.216;-1.698;2023-04-25T11:31:02;20.70;84.60
16863;DHT22;52193;48.216;-1.698;2023-04-25T11:33:30;20.60;84.40
16863;DHT22;52193;48.216;-1.698;2023-04-25T11:36:09;20.60;84.40
16863;DHT22;52193;48.216;-1.698;2023-04-25T11:38:36;20.60;84.60
16863;DHT22;52193;48.216;-1.698;2023-04-25T11:41:03;20.60;84.50
16863;DHT22;52193;48.216;-1.698;2023-04-25T11:43:30;20.50;84.60
16863;DHT22;52193;48.216;-1.698;2023-04-25T11:45:57;20.40;84.50
16863;DHT22;52193;48.216;-1.698;2023-04-25T11:48:57;20.30;84.70
16863;DHT22;52193;48.216;-1.698;2023-04-25T11:51:39;20.20;84.60
16863;DHT22;52193;48.216;-1.698;2023-04-25T11:54:35;20.10;84.50
16863;DHT22;52193;48.216;-1.698;2023-04-25T11:57:02;20.10;84.40
16863;DHT22;52193;48.216;-1.698;2023-04-25T11:59:38;20.00;84.30
16863;DHT22;52193;48.216;-1.698;2023-04-25T12:02:40;19.90;84.40
16863;DHT22;52193;48.216;-1.698;2023-04-25T12:11:57;19.80;84.40
16863;DHT22;52193;48.216;-1.698;2023-04-25T12:14:26;19.80;84.10
16863;DHT22;52193;48.216;-1.698;2023-04-25T12:16:59;19.90;84.00
16863;DHT22;52193;48.216;-1.698;2023-04-25T12:19:32;19.90;84.40
16863;DHT22;52193;48.216;-1.698;2023-04-25T12:22:00;20.00;83.40
16863;DHT22;52193;48.216;-1.698;2023-04-25T12:24:28;20.20;83.40
16863;DHT22;52193;48.216;-1.698;2023-04-25T12:27:01;20.40;83.40
16863;DHT22;52193;48.216;-1.698;2023-04-25T12:29:29;20.60;82.70
16863;DHT22;52193;48.216;-1.698;2023-04-25T12:31:57;20.70;82.40
16863;DHT22;52193;48.216;-1.698;2023-04-25T12:34:24;20.70;82.00
16863;DHT22;52193;48.216;-1.698;2023-04-25T12:36:52;20.80;81.80
16863;DHT22;52193;48.216;-1.698;2023-04-25T12:39:20;20.90;81.80
16863;DHT22;52193;48.216;-1.698;2023-04-25T12:41:47;20.90;81.60
16863;DHT22;52193;48.216;-1.698;2023-04-25T12:44:16;20.80;81.70
16863;DHT22;52193;48.216;-1.698;2023-04-25T12:46:43;20.80;81.90
16863;DHT22;52193;48.216;-1.698;2023-04-25T12:49:10;20.70;82.10
16863;DHT22;52193;48.216;-1.698;2023-04-25T12:51:37;20.70;82.10
16863;DHT22;52193;48.216;-1.698;2023-04-25T12:54:05;20.50;82.00
16863;DHT22;52193;48.216;-1.698;2023-04-25T12:56:32;20.40;82.00
16863;DHT22;52193;48.216;-1.698;2023-04-25T12:58:59;20.40;82.10
16863;DHT22;52193;48.216;-1.698;2023-04-25T13:01:28;20.40;81.90
16863;DHT22;52193;48.216;-1.698;2023-04-25T13:03:55;20.30;81.90
16863;DHT22;52193;48.216;-1.698;2023-04-25T13:06:22;20.40;81.70
16863;DHT22;52193;48.216;-1.698;2023-04-25T13:08:49;20.40;81.20
16863;DHT22;52193;48.216;-1.698;2023-04-25T13:11:16;20.40;80.60
16863;DHT22;52193;48.216;-1.698;2023-04-25T13:17:32;21.50;79.70
16863;DHT22;52193;48.216;-1.698;2023-04-25T13:27:01;24.10;76.80
16863;DHT22;52193;48.216;-1.698;2023-04-25T13:29:28;24.00;76.60
16863;DHT22;52193;48.216;-1.698;2023-04-25T13:31:55;23.90;76.40
16863;DHT22;52193;48.216;-1.698;2023-04-25T13:38:19;23.50;76.60
16863;DHT22;52193;48.216;-1.698;2023-04-25T13:40:46;23.20;76.60
16863;DHT22;52193;48.216;-1.698;2023-04-25T13:43:13;23.00;76.70
16863;DHT22;52193;48.216;-1.698;2023-04-25T13:45:40;23.00;76.50
16863;DHT22;52193;48.216;-1.698;2023-04-25T13:48:07;23.00;76.50
16863;DHT22;52193;48.216;-1.698;2023-04-25T13:50:34;23.10;76.40
16863;DHT22;52193;48.216;-1.698;2023-04-25T13:53:00;23.50;76.20
16863;DHT22;52193;48.216;-1.698;2023-04-25T13:55:29;23.90;75.40
16863;DHT22;52193;48.216;-1.698;2023-04-25T13:57:56;24.00;75.20
16863;DHT22;52193;48.216;-1.698;2023-04-25T14:00:23;23.90;75.00
16863;DHT22;52193;48.216;-1.698;2023-04-25T14:02:50;24.00;74.90
16863;DHT22;52193;48.216;-1.698;2023-04-25T14:05:16;24.90;74.70
16863;DHT22;52193;48.216;-1.698;2023-04-25T14:07:45;25.10;73.70
16863;DHT22;52193;48.216;-1.698;2023-04-25T14:10:12;25.00;73.50
16863;DHT22;52193;48.216;-1.698;2023-04-25T14:12:40;25.10;73.20
16863;DHT22;52193;48.216;-1.698;2023-04-25T14:15:07;25.00;73.50
16863;DHT22;52193;48.216;-1.698;2023-04-25T14:17:34;24.70;73.20
16863;DHT22;52193;48.216;-1.698;2023-04-25T14:20:01;24.40;73.40
16863;DHT22;52193;48.216;-1.698;2023-04-25T14:22:31;24.10;73.50
16863;DHT22;52193;48.216;-1.698;2023-04-25T14:24:58;23.90;73.50
16863;DHT22;52193;48.216;-1.698;2023-04-25T14:30:48;23.50;73.70
16863;DHT22;52193;48.216;-1.698;2023-04-25T14:33:15;23.30;73.90
16863;DHT22;52193;48.216;-1.698;2023-04-25T14:35:42;23.20;74.10
16863;DHT22;52193;48.216;-1.698;2023-04-25T14:38:09;23.10;74.30
16863;DHT22;52193;48.216;-1.698;2023-04-25T14:40:36;23.10;74.30
16863;DHT22;52193;48.216;-1.698;2023-04-25T14:43:03;23.10;74.10
16863;DHT22;52193;48.216;-1.698;2023-04-25T14:45:30;23.20;74.30
16863;DHT22;52193;48.216;-1.698;2023-04-25T14:47:59;23.00;74.10
16863;DHT22;52193;48.216;-1.698;2023-04-25T14:50:26;23.10;74.40
16863;DHT22;52193;48.216;-1.698;2023-04-25T14:52:53;23.10;74.50
16863;DHT22;52193;48.216;-1.698;2023-04-25T14:55:24;23.10;74.40
16863;DHT22;52193;48.216;-1.698;2023-04-25T14:57:51;23.10;74.30
16863;DHT22;52193;48.216;-1.698;2023-04-25T15:00:19;23.20;74.10
16863;DHT22;52193;48.216;-1.698;2023-04-25T15:02:48;23.00;73.90
16863;DHT22;52193;48.216;-1.698;2023-04-25T15:05:16;22.90;73.80
16863;DHT22;52193;48.216;-1.698;2023-04-25T15:07:43;22.90;74.00
16863;DHT22;52193;48.216;-1.698;2023-04-25T15:10:10;22.80;73.90
16863;DHT22;52193;48.216;-1.698;2023-04-25T15:12:39;22.80;73.80
16863;DHT22;52193;48.216;-1.698;2023-04-25T15:15:07;22.70;73.90
16863;DHT22;52193;48.216;-1.698;2023-04-25T15:17:37;22.60;73.80
16863;DHT22;52193;48.216;-1.698;2023-04-25T15:20:05;22.40;73.90
16863;DHT22;52193;48.216;-1.698;2023-04-25T15:22:33;22.30;74.10
16863;DHT22;52193;48.216;-1.698;2023-04-25T15:25:00;22.30;74.40
16863;DHT22;52193;48.216;-1.698;2023-04-25T15:27:28;22.10;74.30
16863;DHT22;52193;48.216;-1.698;2023-04-25T15:29:56;22.10;74.40
16863;DHT22;52193;48.216;-1.698;2023-04-25T15:32:23;22.00;74.20
16863;DHT22;52193;48.216;-1.698;2023-04-25T15:34:50;22.00;74.30
16863;DHT22;52193;48.216;-1.698;2023-04-25T15:37:17;21.90;74.40
16863;DHT22;52193;48.216;-1.698;2023-04-25T15:39:46;21.80;74.70
16863;DHT22;52193;48.216;-1.698;2023-04-25T15:42:13;21.80;74.90
16863;DHT22;52193;48.216;-1.698;2023-04-25T15:44:39;21.70;75.00
16863;DHT22;52193;48.216;-1.698;2023-04-25T15:47:06;21.60;75.30